createdAt,value
2018-04-25T00:02:08.212Z,11.33
2018-04-25T00:04:35.825Z,11.00
2018-04-25T00:07:03.409Z,9.90
2018-04-25T00:09:31.016Z,11.70
2018-04-25T00:11:58.630Z,11.70
2018-04-25T00:14:26.215Z,11.40
2018-04-25T00:16:53.807Z,12.87
2018-04-25T00:19:21.471Z,11.63
2018-04-25T00:21:49.177Z,15.33
2018-04-25T00:24:16.793Z,15.17
2018-04-25T00:26:44.445Z,16.43
2018-04-25T00:29:12.035Z,13.10
2018-04-25T00:31:39.625Z,16.77
2018-04-25T00:34:07.233Z,15.73
2018-04-25T00:36:34.818Z,13.27
2018-04-25T00:39:02.443Z,16.30
2018-04-25T00:41:30.072Z,10.77
2018-04-25T00:43:57.665Z,8.87
2018-04-25T00:46:25.333Z,9.10
2018-04-25T00:48:53.007Z,7.50
2018-04-25T00:51:20.590Z,7.97
2018-04-25T00:53:48.180Z,11.63
2018-04-25T00:56:15.842Z,10.20
2018-04-25T00:58:43.650Z,10.97
2018-04-25T01:01:11.322Z,11.63
2018-04-25T01:03:38.908Z,9.80
2018-04-25T01:06:06.622Z,11.10
2018-04-25T01:08:34.290Z,8.73
2018-04-25T01:11:01.868Z,8.70
2018-04-25T01:13:29.651Z,6.60
2018-04-25T01:15:57.292Z,9.23
2018-04-25T01:18:24.894Z,7.77
2018-04-25T01:20:52.604Z,8.20
2018-04-25T01:23:24.969Z,9.10
2018-04-25T01:26:01.638Z,8.20
2018-04-25T01:31:41.012Z,9.50
2018-04-25T01:34:14.621Z,9.13
2018-04-25T01:36:43.286Z,7.33
2018-04-25T01:39:17.520Z,8.60
2018-04-25T01:41:47.217Z,9.47
2018-04-25T01:44:22.835Z,10.07
2018-04-25T01:50:11.172Z,10.63
2018-04-25T01:52:50.481Z,9.80
2018-04-25T01:55:29.819Z,9.80
2018-04-25T01:58:09.543Z,10.03
2018-04-25T02:00:48.992Z,10.60
2018-04-25T02:03:17.462Z,10.70
2018-04-25T02:05:45.130Z,11.03
2018-04-25T02:08:12.713Z,9.93
2018-04-25T02:10:40.473Z,10.63
2018-04-25T02:13:08.326Z,10.33
2018-04-25T02:15:35.912Z,11.20
2018-04-25T02:18:03.589Z,11.83
2018-04-25T02:20:31.179Z,10.87
2018-04-25T02:22:58.781Z,11.70
2018-04-25T02:25:26.395Z,11.53
2018-04-25T02:27:54.106Z,15.90
2018-04-25T02:30:21.698Z,14.43
2018-04-25T02:32:49.332Z,15.27
2018-04-25T02:35:16.917Z,14.83
2018-04-25T02:37:44.538Z,13.30
2018-04-25T02:40:12.151Z,12.23
2018-04-25T02:42:39.742Z,12.00
2018-04-25T02:45:07.329Z,11.80
2018-04-25T02:47:34.966Z,13.03
2018-04-25T02:50:02.546Z,10.13
2018-04-25T02:52:30.136Z,11.20
2018-04-25T02:54:57.759Z,10.30
2018-04-25T02:57:25.385Z,11.80
2018-04-25T02:59:53.309Z,11.33
2018-04-25T03:02:20.949Z,9.83
2018-04-25T03:04:48.589Z,11.17
2018-04-25T03:07:16.195Z,10.77
2018-04-25T03:09:43.790Z,12.80
2018-04-25T03:12:11.489Z,11.90
2018-04-25T03:14:39.149Z,11.23
2018-04-25T03:17:06.757Z,11.83
2018-04-25T03:19:34.376Z,11.03
2018-04-25T03:22:01.971Z,11.30
2018-04-25T03:24:29.564Z,11.50
2018-04-25T03:26:57.192Z,9.27
2018-04-25T03:29:24.771Z,9.17
2018-04-25T03:31:52.513Z,12.17
2018-04-25T03:34:20.340Z,9.83
2018-04-25T03:36:48.239Z,10.60
2018-04-25T03:39:15.816Z,9.47
2018-04-25T03:41:43.565Z,11.93
2018-04-25T03:44:11.216Z,12.00
2018-04-25T03:46:38.890Z,12.70
2018-04-25T03:49:06.524Z,10.97
2018-04-25T03:51:34.116Z,10.40
2018-04-25T03:54:01.690Z,10.90
2018-04-25T03:56:29.299Z,9.20
2018-04-25T03:58:56.855Z,8.10
2018-04-25T04:01:24.412Z,7.77
2018-04-25T04:03:52.009Z,7.20
2018-04-25T04:06:19.764Z,8.80
2018-04-25T04:08:47.416Z,6.83
2018-04-25T04:11:15.084Z,7.60
2018-04-25T04:13:42.759Z,6.63
2018-04-25T04:16:10.413Z,5.87
2018-04-25T04:18:38.032Z,6.60
2018-04-25T04:21:05.627Z,5.90
2018-04-25T04:23:33.199Z,6.37
2018-04-25T04:26:00.827Z,5.10
2018-04-25T04:28:28.408Z,7.00
2018-04-25T04:30:55.986Z,6.33
2018-04-25T04:33:23.600Z,5.20
2018-04-25T04:35:51.184Z,5.43
2018-04-25T04:38:18.756Z,6.00
2018-04-25T04:40:46.358Z,5.87
2018-04-25T04:43:13.942Z,6.00
2018-04-25T04:45:41.553Z,6.43
2018-04-25T04:48:09.150Z,4.83
2018-04-25T04:50:36.727Z,5.40
2018-04-25T04:53:04.313Z,5.27
2018-04-25T04:55:31.936Z,4.70
2018-04-25T04:57:59.520Z,4.20
2018-04-25T05:00:27.113Z,4.83
2018-04-25T05:02:54.764Z,5.33
2018-04-25T05:05:22.339Z,4.70
2018-04-25T05:07:49.928Z,4.90
2018-04-25T05:10:17.543Z,4.63
2018-04-25T05:12:45.170Z,3.67
2018-04-25T05:15:12.789Z,4.57
2018-04-25T05:17:40.433Z,5.10
2018-04-25T05:20:08.015Z,4.37
2018-04-25T05:22:35.592Z,4.10
2018-04-25T05:25:03.180Z,4.40
2018-04-25T05:27:30.747Z,4.33
2018-04-25T05:29:58.342Z,4.60
2018-04-25T05:32:25.951Z,5.50
2018-04-25T05:34:53.546Z,4.63
2018-04-25T05:37:21.131Z,4.10
2018-04-25T05:39:48.736Z,5.20
2018-04-25T05:42:16.308Z,4.23
2018-04-25T05:44:43.885Z,4.77
2018-04-25T05:47:11.505Z,5.00
2018-04-25T05:49:39.087Z,3.73
2018-04-25T05:52:06.667Z,4.70
2018-04-25T05:54:34.288Z,5.37
2018-04-25T05:57:01.858Z,4.60
2018-04-25T05:59:29.425Z,4.50
2018-04-25T06:01:57.037Z,5.37
2018-04-25T06:04:24.626Z,4.93
2018-04-25T06:06:52.190Z,4.43
2018-04-25T06:09:19.805Z,4.43
2018-04-25T06:11:47.408Z,4.57
2018-04-25T06:14:14.980Z,4.40
2018-04-25T06:16:42.592Z,4.33
2018-04-25T06:19:10.164Z,4.80
2018-04-25T06:21:37.751Z,4.30
2018-04-25T06:24:05.368Z,5.47
2018-04-25T06:26:33.026Z,5.93
2018-04-25T06:29:00.555Z,5.70
2018-04-25T06:31:28.179Z,6.90
2018-04-25T06:33:55.764Z,5.93
2018-04-25T06:36:23.386Z,5.77
2018-04-25T06:38:51.003Z,5.30
2018-04-25T06:41:18.591Z,4.50
2018-04-25T06:43:46.167Z,4.53
2018-04-25T06:46:13.813Z,4.53
2018-04-25T06:48:41.390Z,4.90
2018-04-25T06:51:08.967Z,4.70
2018-04-25T06:53:36.579Z,4.00
2018-04-25T06:56:04.204Z,3.43
2018-04-25T06:58:31.777Z,3.40
2018-04-25T07:00:59.383Z,3.20
2018-04-25T07:03:26.952Z,3.53
2018-04-25T07:05:54.541Z,2.80
2018-04-25T07:08:22.151Z,3.37
2018-04-25T07:10:49.747Z,3.20
2018-04-25T07:13:17.341Z,3.17
2018-04-25T07:15:44.956Z,3.77
2018-04-25T07:18:12.538Z,3.60
2018-04-25T07:20:40.119Z,3.00
2018-04-25T07:23:07.743Z,3.20
2018-04-25T07:25:35.323Z,3.33
2018-04-25T07:28:02.905Z,3.00
2018-04-25T07:30:30.546Z,4.13
2018-04-25T07:32:58.139Z,3.23
2018-04-25T07:35:25.797Z,3.30
2018-04-25T07:37:53.403Z,3.57
2018-04-25T07:40:20.994Z,3.80
2018-04-25T07:42:48.579Z,3.07
2018-04-25T07:45:16.207Z,3.27
2018-04-25T07:47:43.783Z,2.87
2018-04-25T07:50:11.366Z,2.73
2018-04-25T07:52:38.975Z,3.30
2018-04-25T07:55:06.557Z,3.20
2018-04-25T07:57:34.132Z,2.97
2018-04-25T08:00:01.754Z,2.90
2018-04-25T08:02:29.335Z,3.30
2018-04-25T08:04:56.929Z,3.00
2018-04-25T08:07:24.669Z,2.90
2018-04-25T08:09:52.227Z,3.27
2018-04-25T08:12:31.525Z,3.10
2018-04-25T08:15:10.823Z,2.90
2018-04-25T08:17:50.107Z,3.07
2018-04-25T08:20:29.359Z,3.00
2018-04-25T08:22:56.978Z,3.13
2018-04-25T08:25:24.573Z,3.53
2018-04-25T08:27:52.149Z,3.13
2018-04-25T08:30:19.971Z,3.30
2018-04-25T08:32:47.560Z,3.23
2018-04-25T08:35:15.147Z,3.83
2018-04-25T08:37:42.787Z,3.37
2018-04-25T08:40:10.408Z,4.63
2018-04-25T08:42:37.988Z,2.70
2018-04-25T08:45:05.660Z,3.60
2018-04-25T08:47:33.207Z,3.35
2018-04-25T08:50:00.781Z,3.60
2018-04-25T08:52:28.407Z,3.50
2018-04-25T08:54:56.015Z,3.73
2018-04-25T08:57:23.592Z,2.97
2018-04-25T08:59:51.222Z,3.63
2018-04-25T09:02:18.851Z,3.23
2018-04-25T09:04:46.433Z,3.17
2018-04-25T09:07:14.055Z,3.77
2018-04-25T09:09:41.634Z,2.70
2018-04-25T09:12:09.219Z,4.10
2018-04-25T09:14:36.850Z,4.17
2018-04-25T09:17:04.432Z,3.30
2018-04-25T09:19:32.005Z,3.00
2018-04-25T09:21:59.618Z,3.60
2018-04-25T09:24:27.245Z,3.37
2018-04-25T09:26:54.825Z,3.67
2018-04-25T09:29:22.449Z,3.50
2018-04-25T09:31:50.026Z,4.33
2018-04-25T09:34:17.610Z,2.70
2018-04-25T09:36:45.228Z,2.75
2018-04-25T09:39:12.805Z,3.65
2018-04-25T09:41:40.393Z,3.53
2018-04-25T09:44:08.007Z,3.40
2018-04-25T09:46:35.588Z,3.40
2018-04-25T09:49:03.172Z,3.10
2018-04-25T09:51:30.823Z,2.83
2018-04-25T09:53:58.408Z,3.58
2018-04-25T09:56:25.990Z,3.50
2018-04-25T09:58:53.602Z,4.03
2018-04-25T10:01:26.707Z,3.17
2018-04-25T10:03:54.365Z,2.78
2018-04-25T10:06:21.973Z,2.53
2018-04-25T10:08:49.543Z,3.20
2018-04-25T10:11:17.165Z,2.22
2018-04-25T10:13:44.752Z,3.55
2018-04-25T10:16:12.330Z,2.78
2018-04-25T10:18:40.008Z,3.20
2018-04-25T10:21:07.593Z,3.17
2018-04-25T10:23:35.201Z,2.65
2018-04-25T10:26:02.824Z,3.67
2018-04-25T10:28:30.468Z,3.30
2018-04-25T10:30:58.047Z,3.40
2018-04-25T10:33:25.670Z,3.30
2018-04-25T10:35:53.243Z,2.87
2018-04-25T10:38:20.828Z,3.75
2018-04-25T10:40:48.437Z,3.80
2018-04-25T10:43:16.024Z,4.80
2018-04-25T10:45:43.597Z,3.50
2018-04-25T10:48:11.206Z,3.15
2018-04-25T10:50:38.784Z,4.00
2018-04-25T10:53:06.359Z,3.45
2018-04-25T10:55:33.987Z,3.53
2018-04-25T10:58:01.558Z,3.53
2018-04-25T11:00:29.204Z,4.32
2018-04-25T11:02:56.843Z,3.35
2018-04-25T11:05:24.443Z,2.65
2018-04-25T11:07:52.059Z,3.45
2018-04-25T11:10:19.634Z,3.45
2018-04-25T11:12:47.236Z,4.07
2018-04-25T11:15:14.805Z,3.40
2018-04-25T11:17:42.368Z,3.50
2018-04-25T11:20:09.977Z,3.95
2018-04-25T11:22:37.606Z,3.35
2018-04-25T11:25:05.190Z,3.47
2018-04-25T11:27:32.900Z,4.37
2018-04-25T11:30:00.476Z,3.30
2018-04-25T11:32:28.219Z,3.72
2018-04-25T11:34:55.841Z,4.07
2018-04-25T11:37:23.453Z,3.22
2018-04-25T11:39:51.045Z,4.93
2018-04-25T11:42:18.662Z,2.42
2018-04-25T11:44:46.239Z,3.20
2018-04-25T11:47:13.892Z,2.78
2018-04-25T11:49:41.460Z,2.97
2018-04-25T11:52:09.030Z,2.40
2018-04-25T11:54:36.604Z,2.85
2018-04-25T11:57:04.235Z,2.85
2018-04-25T11:59:31.823Z,3.28
2018-04-25T12:01:59.410Z,3.12
2018-04-25T12:04:27.023Z,2.62
2018-04-25T12:06:54.666Z,2.55
2018-04-25T12:09:22.326Z,2.70
2018-04-25T12:11:49.942Z,2.60
2018-04-25T12:14:17.661Z,3.00
2018-04-25T12:16:45.310Z,2.22
2018-04-25T12:19:12.952Z,3.17
2018-04-25T12:21:40.623Z,2.65
2018-04-25T12:24:08.289Z,2.83
2018-04-25T12:26:35.963Z,4.28
2018-04-25T12:29:03.624Z,3.47
2018-04-25T12:31:31.276Z,2.75
2018-04-25T12:33:58.945Z,2.40
2018-04-25T12:36:26.604Z,2.65
2018-04-25T12:38:55.253Z,3.50
2018-04-25T12:41:22.930Z,2.90
2018-04-25T12:43:50.499Z,3.60
2018-04-25T12:46:18.081Z,2.67
2018-04-25T12:48:45.688Z,3.10
2018-04-25T12:51:13.258Z,2.50
2018-04-25T12:53:40.832Z,2.47
2018-04-25T12:56:08.422Z,3.60
2018-04-25T12:58:35.999Z,3.05
2018-04-25T13:01:03.624Z,3.65
2018-04-25T13:03:31.236Z,2.80
2018-04-25T13:05:58.799Z,3.40
2018-04-25T13:08:26.374Z,4.07
2018-04-25T13:10:54.076Z,3.10
2018-04-25T13:13:21.657Z,3.63
2018-04-25T13:15:49.217Z,4.10
2018-04-25T13:18:19.784Z,4.80
2018-04-25T13:20:47.390Z,3.67
2018-04-25T13:23:15.059Z,3.37
2018-04-25T13:25:42.659Z,3.63
2018-04-25T13:28:10.360Z,4.30
2018-04-25T13:30:37.920Z,3.90
2018-04-25T13:33:05.524Z,4.27
2018-04-25T13:35:33.154Z,3.60
2018-04-25T13:38:00.720Z,4.20
2018-04-25T13:40:28.320Z,4.17
2018-04-25T13:42:55.944Z,4.40
2018-04-25T13:47:56.574Z,4.20
2018-04-25T13:50:24.153Z,5.20
2018-04-25T13:52:51.709Z,3.47
2018-04-25T13:55:19.318Z,4.20
2018-04-25T13:57:47.042Z,4.20
2018-04-25T14:00:14.679Z,3.73
2018-04-25T14:02:42.337Z,4.23
2018-04-25T14:05:09.950Z,4.70
2018-04-25T14:07:37.549Z,4.50
2018-04-25T14:10:05.332Z,4.67
2018-04-25T14:12:32.897Z,4.90
2018-04-25T14:15:00.452Z,4.67
2018-04-25T14:17:28.059Z,4.17
2018-04-25T14:19:55.613Z,4.30
2018-04-25T14:22:23.169Z,4.80
2018-04-25T14:24:50.758Z,4.47
2018-04-25T14:27:18.350Z,3.50
2018-04-25T14:29:45.930Z,5.43
2018-04-25T14:32:13.507Z,4.47
2018-04-25T14:34:41.090Z,5.03
2018-04-25T14:37:08.659Z,4.63
2018-04-25T14:39:36.258Z,4.60
2018-04-25T14:42:04.059Z,4.87
2018-04-25T14:44:31.625Z,4.10
2018-04-25T14:46:59.277Z,5.60
2018-04-25T14:49:27.013Z,5.07
2018-04-25T14:51:54.999Z,5.33
2018-04-25T14:54:22.639Z,3.83
2018-04-25T14:56:50.591Z,4.77
2018-04-25T14:59:18.180Z,4.30
2018-04-25T15:01:46.147Z,4.43
2018-04-25T15:04:14.042Z,5.37
2018-04-25T15:06:41.618Z,4.63
2018-04-25T15:09:09.347Z,5.80
2018-04-25T15:11:37.009Z,5.70
2018-04-25T15:14:04.583Z,5.67
2018-04-25T15:16:32.339Z,5.37
2018-04-25T15:18:59.923Z,4.93
2018-04-25T15:21:27.495Z,5.40
2018-04-25T15:23:55.142Z,4.50
2018-04-25T15:26:23.498Z,6.30
2018-04-25T15:28:51.262Z,4.63
2018-04-25T15:31:18.877Z,4.70
2018-04-25T15:33:46.454Z,4.90
2018-04-25T15:36:14.142Z,5.20
2018-04-25T15:38:41.756Z,3.90
2018-04-25T15:41:09.332Z,4.47
2018-04-25T15:43:37.218Z,9.93
2018-04-25T15:46:04.823Z,5.60
2018-04-25T15:48:32.460Z,4.90
2018-04-25T15:51:00.115Z,4.83
2018-04-25T15:53:28.017Z,6.10
2018-04-25T15:55:55.581Z,5.87
2018-04-25T15:58:23.164Z,6.10
2018-04-25T16:00:50.781Z,5.77
2018-04-25T16:03:18.364Z,7.07
2018-04-25T16:05:45.943Z,5.70
2018-04-25T16:08:13.637Z,7.60
2018-04-25T16:10:41.231Z,8.53
2018-04-25T16:13:08.886Z,6.60
2018-04-25T16:15:36.753Z,7.70
2018-04-25T16:18:04.397Z,11.47
2018-04-25T16:20:31.983Z,9.03
2018-04-25T16:22:59.698Z,8.63
2018-04-25T16:25:27.279Z,8.77
2018-04-25T16:27:54.931Z,8.13
2018-04-25T16:30:22.538Z,8.13
2018-04-25T16:32:50.108Z,11.20
2018-04-25T16:35:17.699Z,8.27
2018-04-25T16:37:45.336Z,8.80
2018-04-25T16:40:12.969Z,8.00
2018-04-25T16:42:40.803Z,7.53
2018-04-25T16:45:08.420Z,8.30
2018-04-25T16:47:36.010Z,9.17
2018-04-25T16:50:03.597Z,8.93
2018-04-25T16:52:31.204Z,9.63
2018-04-25T16:54:58.972Z,8.80
2018-04-25T16:57:26.572Z,11.20
2018-04-25T16:59:54.245Z,11.53
2018-04-25T17:02:21.909Z,9.87
2018-04-25T17:04:49.803Z,11.33
2018-04-25T17:07:17.419Z,10.73
2018-04-25T17:09:45.145Z,10.10
2018-04-25T17:12:12.724Z,10.67
2018-04-25T17:14:40.340Z,11.80
2018-04-25T17:17:07.970Z,9.80
2018-04-25T17:19:35.666Z,9.03
2018-04-25T17:22:03.441Z,9.13
2018-04-25T17:24:31.010Z,8.63
2018-04-25T17:26:58.604Z,8.60
2018-04-25T17:29:26.219Z,10.60
2018-04-25T17:31:53.791Z,9.73
2018-04-25T17:34:21.521Z,10.33
2018-04-25T17:36:49.258Z,10.43
2018-04-25T17:39:16.898Z,10.27
2018-04-25T17:41:44.644Z,10.53
2018-04-25T17:44:12.288Z,9.17
2018-04-25T17:46:39.928Z,9.90
2018-04-25T17:49:07.573Z,10.07
2018-04-25T17:51:35.188Z,10.67
2018-04-25T17:54:02.763Z,10.20
2018-04-25T17:56:30.333Z,9.47
2018-04-25T17:58:57.937Z,9.13
2018-04-25T18:01:25.514Z,11.20
2018-04-25T18:03:53.161Z,10.00
2018-04-25T18:06:20.763Z,9.30
2018-04-25T18:08:48.499Z,12.50
2018-04-25T18:11:16.168Z,10.60
2018-04-25T18:13:43.769Z,10.07
2018-04-25T18:16:11.349Z,10.80
2018-04-25T18:18:39.149Z,10.03
2018-04-25T18:21:06.758Z,11.10
2018-04-25T18:23:34.453Z,11.20
2018-04-25T18:26:02.035Z,10.73
2018-04-25T18:28:29.631Z,10.77
2018-04-25T18:30:57.256Z,11.40
2018-04-25T18:33:24.900Z,11.03
2018-04-25T18:35:52.542Z,10.63
2018-04-25T18:38:20.121Z,12.53
2018-04-25T18:40:47.903Z,12.57
2018-04-25T18:43:15.626Z,10.97
2018-04-25T18:45:43.198Z,11.80
2018-04-25T18:48:10.773Z,11.00
2018-04-25T18:50:38.539Z,13.10
2018-04-25T18:53:06.119Z,12.93
2018-04-25T18:55:33.703Z,11.67
2018-04-25T18:58:01.340Z,11.47
2018-04-25T19:00:28.996Z,11.20
2018-04-25T19:02:56.569Z,10.93
2018-04-25T19:05:24.335Z,11.60
2018-04-25T19:07:52.165Z,12.10
2018-04-25T19:10:19.749Z,11.33
2018-04-25T19:12:47.426Z,11.30
2018-04-25T19:15:15.005Z,11.97
2018-04-25T19:17:42.616Z,11.97
2018-04-25T19:20:10.299Z,12.43
2018-04-25T19:22:37.878Z,12.20
2018-04-25T19:25:05.481Z,10.63
2018-04-25T19:27:33.083Z,13.27
2018-04-25T19:30:00.738Z,10.83
2018-04-25T19:32:28.373Z,10.87
2018-04-25T19:34:56.002Z,11.53
2018-04-25T19:37:23.621Z,12.87
2018-04-25T19:39:51.387Z,10.60
2018-04-25T19:42:19.009Z,13.20
2018-04-25T19:44:46.678Z,12.60
2018-04-25T19:47:14.208Z,10.90
2018-04-25T19:49:41.820Z,15.37
2018-04-25T19:52:09.390Z,11.73
2018-04-25T19:54:37.042Z,11.90
2018-04-25T19:57:04.785Z,13.30
2018-04-25T19:59:32.372Z,11.90
2018-04-25T20:01:59.961Z,13.57
2018-04-25T20:04:27.688Z,13.70
2018-04-25T20:06:55.430Z,13.30
2018-04-25T20:09:23.033Z,12.13
2018-04-25T20:11:50.946Z,12.30
2018-04-25T20:14:18.646Z,13.43
2018-04-25T20:16:46.301Z,14.00
2018-04-25T20:19:13.981Z,13.40
2018-04-25T20:21:41.564Z,13.27
2018-04-25T20:24:09.170Z,13.70
2018-04-25T20:26:36.768Z,12.03
2018-04-25T20:29:04.430Z,13.63
2018-04-25T20:31:32.004Z,13.77
2018-04-25T20:33:59.752Z,12.77
2018-04-25T20:36:27.322Z,15.00
2018-04-25T20:38:54.951Z,14.17
2018-04-25T20:41:22.576Z,13.20
2018-04-25T20:43:50.148Z,13.43
2018-04-25T20:46:17.948Z,14.20
2018-04-25T20:48:45.716Z,14.00
2018-04-25T20:51:13.293Z,13.33
2018-04-25T20:53:41.022Z,13.93
2018-04-25T20:56:08.692Z,13.93
2018-04-25T20:58:36.360Z,13.60
2018-04-25T21:01:04.019Z,14.00
2018-04-25T21:03:31.698Z,14.30
2018-04-25T21:05:59.278Z,15.50
2018-04-25T21:08:26.862Z,14.80
2018-04-25T21:10:54.890Z,13.40
2018-04-25T21:13:22.519Z,13.57
2018-04-25T21:15:50.101Z,14.63
2018-04-25T21:18:17.705Z,14.40
2018-04-25T21:20:45.310Z,14.80
2018-04-25T21:23:12.996Z,14.70
2018-04-25T21:25:40.654Z,14.40
2018-04-25T21:28:08.299Z,14.63
2018-04-25T21:30:35.862Z,13.30
2018-04-25T21:33:03.472Z,12.63
2018-04-25T21:35:31.066Z,15.17
2018-04-25T21:37:58.754Z,13.50
2018-04-25T21:40:26.380Z,14.63
2018-04-25T21:42:54.078Z,12.67
2018-04-25T21:45:21.647Z,13.13
2018-04-25T21:47:49.267Z,14.00
2018-04-25T21:50:16.836Z,14.60
2018-04-25T21:52:44.510Z,13.33
2018-04-25T21:55:12.219Z,14.10
2018-04-25T21:57:39.799Z,15.23
2018-04-25T22:00:07.499Z,16.87
2018-04-25T22:02:35.094Z,15.13
2018-04-25T22:05:02.693Z,14.33
2018-04-25T22:07:30.504Z,14.07
2018-04-25T22:09:58.159Z,14.33
2018-04-25T22:12:25.744Z,14.70
2018-04-25T22:14:53.481Z,14.40
2018-04-25T22:17:21.204Z,15.67
2018-04-25T22:19:48.803Z,15.70
2018-04-25T22:22:16.394Z,14.77
2018-04-25T22:24:44.038Z,15.60
2018-04-25T22:27:11.801Z,15.27
2018-04-25T22:29:39.384Z,14.80
2018-04-25T22:32:06.983Z,13.37
2018-04-25T22:34:34.570Z,15.93
2018-04-25T22:37:02.148Z,14.57
2018-04-25T22:39:29.771Z,14.30
2018-04-25T22:41:57.346Z,14.67
2018-04-25T22:44:25.020Z,13.87
2018-04-25T22:46:52.665Z,14.73
2018-04-25T22:49:20.245Z,15.03
2018-04-25T22:51:47.813Z,14.70
2018-04-25T22:54:15.427Z,15.20
2018-04-25T22:56:43.008Z,15.57
2018-04-25T22:59:10.593Z,14.80
2018-04-25T23:01:38.255Z,15.70
2018-04-25T23:04:05.899Z,14.07
2018-04-25T23:06:33.499Z,14.63
2018-04-25T23:09:01.098Z,14.47
2018-04-25T23:11:28.688Z,15.10
2018-04-25T23:13:56.347Z,16.33
2018-04-25T23:16:23.986Z,15.67
2018-04-25T23:18:51.571Z,16.23
2018-04-25T23:21:19.349Z,18.77
2018-04-25T23:23:46.963Z,14.73
2018-04-25T23:26:14.533Z,16.60
2018-04-25T23:28:42.115Z,16.40
2018-04-25T23:31:09.791Z,14.40
2018-04-25T23:33:37.396Z,15.80
2018-04-25T23:36:04.975Z,14.40
2018-04-25T23:38:32.614Z,16.63
2018-04-25T23:41:00.200Z,16.13
2018-04-25T23:43:28.074Z,16.20
2018-04-25T23:45:55.753Z,15.50
2018-04-25T23:48:23.346Z,16.73
2018-04-25T23:50:50.927Z,17.87
2018-04-25T23:53:18.747Z,17.60
2018-04-25T23:55:46.324Z,16.93
2018-04-25T23:58:14.056Z,15.93
